createdAt,value
2023-03-12T00:04:11.755Z,6.13
2023-03-12T00:10:15.391Z,4.72
2023-03-12T00:16:19.343Z,5.10
2023-03-12T00:22:25.655Z,3.85
2023-03-12T00:28:29.096Z,4.65
2023-03-12T00:34:32.494Z,5.28
2023-03-12T00:40:39.347Z,4.35
2023-03-12T00:46:42.969Z,7.93
2023-03-12T00:52:46.357Z,4.28
2023-03-12T00:58:51.146Z,6.80
2023-03-12T01:04:54.537Z,4.22
2023-03-12T01:10:57.963Z,7.18
2023-03-12T01:17:03.058Z,5.60
2023-03-12T01:23:06.479Z,4.65
2023-03-12T01:29:10.035Z,6.35
2023-03-12T01:35:15.193Z,5.18
2023-03-12T01:41:18.656Z,6.78
2023-03-12T01:47:22.452Z,6.57
2023-03-12T01:53:27.232Z,9.40
2023-03-12T01:59:33.101Z,8.68
2023-03-12T02:05:43.547Z,7.88
2023-03-12T02:11:48.681Z,8.40
2023-03-12T02:17:52.145Z,8.55
2023-03-12T02:23:58.512Z,6.38
2023-03-12T02:30:03.831Z,6.05
2023-03-12T02:36:07.773Z,6.60
2023-03-12T02:42:11.267Z,7.22
2023-03-12T02:48:16.131Z,5.57
2023-03-12T02:54:20.537Z,6.13
2023-03-12T03:00:24.039Z,9.23
2023-03-12T03:06:29.094Z,6.30
2023-03-12T03:12:32.480Z,8.20
2023-03-12T03:18:35.897Z,8.05
2023-03-12T03:24:40.709Z,6.88
2023-03-12T03:30:44.220Z,10.57
2023-03-12T03:36:47.669Z,7.50
2023-03-12T03:42:52.431Z,11.00
2023-03-12T03:48:55.994Z,12.75
2023-03-12T03:54:59.575Z,12.77
2023-03-12T04:01:04.420Z,16.83
2023-03-12T04:07:08.071Z,18.13
2023-03-12T04:13:11.434Z,17.58
2023-03-12T04:19:16.359Z,19.73
2023-03-12T04:25:19.842Z,18.38
2023-03-12T04:31:23.583Z,17.02
2023-03-12T04:37:28.411Z,13.05
2023-03-12T04:43:32.552Z,15.60
2023-03-12T04:49:36.151Z,13.70
2023-03-12T04:55:40.927Z,13.95
2023-03-12T05:01:44.653Z,14.40
2023-03-12T05:07:48.260Z,14.05
2023-03-12T05:13:53.271Z,14.35
2023-03-12T05:19:57.099Z,18.70
2023-03-12T05:26:00.772Z,14.40
2023-03-12T05:32:05.712Z,15.15
2023-03-12T05:38:09.091Z,13.23
2023-03-12T05:44:13.686Z,12.90
2023-03-12T05:50:18.585Z,13.60
2023-03-12T05:56:22.024Z,14.75
2023-03-12T06:02:25.558Z,15.68
2023-03-12T06:08:30.675Z,12.68
2023-03-12T06:14:34.047Z,13.63
2023-03-12T06:20:37.447Z,15.80
2023-03-12T06:26:42.369Z,15.07
2023-03-12T06:32:45.808Z,14.68
2023-03-12T06:38:49.264Z,11.55
2023-03-12T06:44:54.197Z,20.85
2023-03-12T06:50:57.719Z,15.32
2023-03-12T06:57:01.370Z,23.40
2023-03-12T07:03:06.357Z,22.38
2023-03-12T07:09:09.984Z,16.08
2023-03-12T07:15:13.618Z,22.52
2023-03-12T07:21:22.808Z,16.58
2023-03-12T07:27:26.638Z,24.73
2023-03-12T07:33:30.190Z,22.00
2023-03-12T07:39:35.145Z,15.70
2023-03-12T07:45:39.075Z,17.42
2023-03-12T07:51:42.549Z,10.13
2023-03-12T07:57:47.452Z,10.60
2023-03-12T08:03:51.207Z,14.88
2023-03-12T08:09:55.039Z,11.13
2023-03-12T08:15:59.853Z,10.27
2023-03-12T08:22:03.346Z,10.95
2023-03-12T08:28:06.965Z,17.20
2023-03-12T08:34:11.778Z,18.33
2023-03-12T08:40:15.315Z,17.73
2023-03-12T08:46:18.957Z,15.27
2023-03-12T08:52:23.776Z,24.33
2023-03-12T08:58:27.547Z,14.95
2023-03-12T09:04:31.060Z,21.80
2023-03-12T09:10:36.136Z,15.20
2023-03-12T09:16:40.096Z,10.80
2023-03-12T09:22:43.605Z,10.88
2023-03-12T09:28:48.621Z,11.45
2023-03-12T09:34:52.076Z,19.60
2023-03-12T09:40:56.526Z,19.48
2023-03-12T09:47:03.632Z,11.32
2023-03-12T09:53:11.924Z,10.60
2023-03-12T09:59:15.417Z,12.70
2023-03-12T10:05:25.613Z,14.23
2023-03-12T10:11:34.268Z,12.07
2023-03-12T10:17:43.157Z,14.88
2023-03-12T10:23:53.298Z,19.10
2023-03-12T10:29:57.351Z,9.80
2023-03-12T10:36:00.810Z,15.68
2023-03-12T10:42:14.600Z,15.43
2023-03-12T10:48:21.453Z,15.77
2023-03-12T10:54:25.242Z,19.83
2023-03-12T11:00:32.200Z,20.17
2023-03-12T11:06:36.020Z,27.13
2023-03-12T11:12:40.895Z,17.77
2023-03-12T11:18:56.391Z,12.90
2023-03-12T11:25:01.321Z,14.75
2023-03-12T11:31:05.273Z,16.13
2023-03-12T11:37:13.773Z,18.83
2023-03-12T11:43:43.174Z,13.60
2023-03-12T11:49:55.874Z,16.25
2023-03-12T11:56:07.174Z,18.38
2023-03-12T12:02:24.162Z,20.73
2023-03-12T12:08:34.365Z,12.05
2023-03-12T12:14:47.184Z,14.40
2023-03-12T12:20:55.414Z,19.17
2023-03-12T12:27:03.780Z,14.48
2023-03-12T12:33:18.401Z,12.60
2023-03-12T12:39:25.986Z,11.27
2023-03-12T12:45:32.050Z,10.85
2023-03-12T12:51:38.605Z,11.38
2023-03-12T12:57:44.071Z,13.73
2023-03-12T13:03:48.168Z,11.45
2023-03-12T13:09:54.021Z,14.05
2023-03-12T13:16:14.117Z,18.48
2023-03-12T13:22:22.964Z,15.15
2023-03-12T13:28:36.180Z,15.88
2023-03-12T13:34:48.625Z,14.35
2023-03-12T13:41:02.756Z,16.90
2023-03-12T13:47:08.528Z,16.08
2023-03-12T13:53:17.781Z,15.40
2023-03-12T13:59:21.323Z,17.80
2023-03-12T14:05:27.036Z,15.75
2023-03-12T14:11:43.825Z,16.88
2023-03-12T14:17:47.475Z,21.75
2023-03-12T14:23:55.236Z,17.40
2023-03-12T14:29:59.838Z,15.50
2023-03-12T14:36:06.507Z,21.20
2023-03-12T14:42:11.759Z,20.20
2023-03-12T14:48:15.695Z,17.35
2023-03-12T14:54:20.385Z,17.88
2023-03-12T15:00:26.610Z,24.77
2023-03-12T15:06:31.385Z,18.23
2023-03-12T15:12:36.059Z,22.38
2023-03-12T15:18:41.356Z,19.50
2023-03-12T15:24:44.835Z,17.17
2023-03-12T15:30:48.461Z,18.83
2023-03-12T15:36:55.075Z,15.48
2023-03-12T15:43:04.104Z,16.85
2023-03-12T15:49:07.662Z,10.85
2023-03-12T15:55:26.660Z,13.75
2023-03-12T16:01:30.715Z,13.85
2023-03-12T16:07:34.773Z,13.48
2023-03-12T16:13:42.025Z,9.90
2023-03-12T16:19:45.616Z,16.38
2023-03-12T16:25:50.415Z,21.17
2023-03-12T16:31:56.926Z,12.68
2023-03-12T16:38:00.923Z,11.75
2023-03-12T16:44:04.926Z,15.95
2023-03-12T16:50:15.189Z,12.90
2023-03-12T16:56:19.784Z,14.90
2023-03-12T17:02:23.441Z,14.90
2023-03-12T17:08:28.254Z,16.75
2023-03-12T17:14:32.556Z,13.85
2023-03-12T17:20:36.552Z,16.48
2023-03-12T17:26:41.652Z,15.48
2023-03-12T17:32:45.206Z,9.52
2023-03-12T17:38:50.861Z,14.98
2023-03-12T17:44:55.972Z,15.30
2023-03-12T17:50:59.397Z,15.20
2023-03-12T17:57:03.693Z,18.92
2023-03-12T18:03:08.672Z,18.48
2023-03-12T18:09:12.295Z,22.98
2023-03-12T18:15:17.120Z,19.05
2023-03-12T18:21:22.022Z,19.58
2023-03-12T18:27:25.509Z,23.88
2023-03-12T18:33:30.757Z,20.55
2023-03-12T18:39:35.588Z,17.85
2023-03-12T18:45:43.279Z,15.95
2023-03-12T18:51:47.382Z,17.50
2023-03-12T18:57:52.176Z,20.23
2023-03-12T19:03:56.232Z,20.05
2023-03-12T19:09:59.682Z,22.70
2023-03-12T19:16:05.980Z,35.55
2023-03-12T19:22:09.710Z,19.05
2023-03-12T19:28:13.262Z,17.50
2023-03-12T19:34:18.316Z,20.33
2023-03-12T19:40:21.895Z,20.95
2023-03-12T19:46:25.568Z,17.58
2023-03-12T19:52:30.509Z,17.33
2023-03-12T19:58:33.933Z,18.58
2023-03-12T20:04:37.439Z,22.17
2023-03-12T20:10:42.306Z,18.10
2023-03-12T20:16:45.777Z,16.88
2023-03-12T20:22:49.502Z,16.55
2023-03-12T20:28:54.284Z,15.20
2023-03-12T20:34:57.688Z,9.00
2023-03-12T20:41:01.307Z,7.07
2023-03-12T20:47:06.614Z,9.32
2023-03-12T20:53:10.987Z,9.07
2023-03-12T20:59:15.099Z,11.73
2023-03-12T21:05:20.234Z,5.88
2023-03-12T21:11:23.674Z,10.20
2023-03-12T21:17:27.111Z,5.53
2023-03-12T21:23:32.090Z,6.97
2023-03-12T21:29:35.646Z,9.40
2023-03-12T21:35:39.123Z,8.00
2023-03-12T21:41:43.974Z,11.85
2023-03-12T21:47:47.424Z,9.45
2023-03-12T21:53:54.874Z,6.78
2023-03-12T21:59:59.732Z,8.48
2023-03-12T22:06:03.621Z,8.80
2023-03-12T22:12:07.519Z,9.13
2023-03-12T22:18:12.653Z,5.45
2023-03-12T22:24:16.092Z,12.40
2023-03-12T22:30:20.101Z,11.18
2023-03-12T22:36:25.040Z,12.73
2023-03-12T22:42:30.192Z,3.40
2023-03-12T22:48:33.858Z,8.55
2023-03-12T22:54:38.626Z,5.03
2023-03-12T23:00:42.042Z,8.82
2023-03-12T23:06:45.559Z,7.65
2023-03-12T23:12:50.348Z,6.32
2023-03-12T23:18:53.840Z,7.80
2023-03-12T23:24:58.108Z,5.28
2023-03-12T23:31:04.074Z,7.07
2023-03-12T23:37:07.583Z,6.38
2023-03-12T23:43:10.967Z,7.03
2023-03-12T23:49:16.140Z,5.90
2023-03-12T23:55:19.664Z,4.20
